• Join FlightAware (Why Join?)
  • Login
  • US Flag 
03:00AM EDT


 

Airport Tracker/Info


-or-


 

Live Flight TrackerFlight Track Log ✈ N95LS ✈ 05-May-2013 ✈ PHMK / MKK - PHNL

Flight Track Log - Related Links

Times and Time Zones

All times are in EDT time to prevent confusion due to time zone crossing. See the N95LS flight status page for this flight to view local times or setup timezone preferences in your user account.

Time Position Orientation Groundspeed Altitude Reporting Facility
EDT Latitude Longitude Course Direction KTS MPH feet Rate Location/Type
11:42PM 21.1667 -157.0667 317° Northwest 120 138 1,300  Level Honolulu Center
11:43PM 21.1833 -157.0833 317° Northwest 70 81 1,900 540 Climbing Honolulu Center
11:44PM 21.1833 -157.1167 270° West 80 92 2,500 600 Climbing Honolulu Center
11:45PM 21.1833 -157.1333 270° West 70 81 3,100 600 Climbing Honolulu Center
11:46PM 21.1667 -157.1667 242° Southwest 90 104 3,700 420 Climbing Honolulu Center
11:47PM 21.1667 -157.1833 270° West 70 81 4,000 120 Climbing Honolulu Center
11:48PM 21.1500 -157.2167 242° Southwest 110 127 4,000  Level Honolulu Center
11:49PM 21.1333 -157.2333 223° Southwest 110 127 4,000  Level Honolulu Center
11:50PM 21.1167 -157.2833 250° West 140 161 4,000  Level Honolulu Center
11:51PM 21.1167 -157.3167 270° West 100 115 4,100  Climbing Honolulu Center
11:52PM 21.1167 -157.3500 270° West 120 138 4,100  Level Honolulu Center
11:53PM 21.1167 -157.3833 270° West 120 138 4,100 -60 Level Honolulu Center
11:54PM 21.1167 -157.4167 270° West 120 138 4,000 -360 Descending Honolulu Center
11:55PM 21.1167 -157.4500 270° West 130 150 3,400 -600 Descending Honolulu Center
11:56PM 21.1333 -157.5000 290° West 130 150 2,900 -420 Descending Honolulu Center
11:57PM 21.1500 -157.5333 298° West 130 150 2,600 -180 Descending Honolulu Center
11:58PM 21.1667 -157.5667 298° West 130 150 2,600  Level Honolulu Center
11:59PM 21.1833 -157.6000 298° West 130 150 2,600 -60 Level Honolulu Center
12:00AM 21.2000 -157.6333 298° West 140 161 2,500  Descending Honolulu Center
12:01AM 21.2167 -157.6667 298° West 140 161 2,600  Climbing Honolulu Center
12:02AM 21.2333 -157.7000 298° West 130 150 2,500 -240 Descending Honolulu Center
12:03AM 21.2500 -157.7333 298° West 130 150 2,200 -300 Descending Honolulu Center
12:04AM 21.2667 -157.7667 298° West 130 150 1,900 -240 Descending Honolulu Center
12:05AM 21.2833 -157.8000 298° West 120 138 1,800 -180 Descending Honolulu Center
12:06AM 21.3000 -157.8333 298° West 120 138 1,600 -300 Descending Honolulu Center
12:07AM 21.3167 -157.8500 317° Northwest 100 115 1,200 -480 Descending Honolulu Center
12:08AM 21.3333 -157.8833 298° West 80 92 700 -540 Descending Honolulu Center